Terminal Aerodrome Forecast
Issued by NWS

Home | Current Version | Previous Version | Text Only | Print | Product List | Glossary On
Versions: 1 2 3 4 5 6 7 8 9 10 11 12 13 14 15 16 17 18 19 20 21
905
FTUS43 KFGF 300843 AAA
TAFBJI
TAF AMD
KBJI 300843Z 3009/3106 00000KT 3/4SM BR VV005
      TEMPO 3009/3013 1/4SM FG VV002
     FM301400 31008KT P6SM SKC=

USA.gov is the U.S. government's official web portal to all federal, state and local government web resources and services.